sensor_id;sensor_type;location;lat;lon;timestamp;pressure;altitude;pressure_sealevel;temperature;humidity
18784;BME280;9520;50.954;6.968;2022-09-27T00:00:13;98988.63;;;18.94;54.01
18784;BME280;9520;50.954;6.968;2022-09-27T00:00:36;98987.78;;;18.94;53.96
18784;BME280;9520;50.954;6.968;2022-09-27T00:00:58;98984.13;;;18.95;54.20
18784;BME280;9520;50.954;6.968;2022-09-27T00:01:20;98987.66;;;18.95;54.19
18784;BME280;9520;50.954;6.968;2022-09-27T00:01:42;98992.03;;;18.96;54.16
18784;BME280;9520;50.954;6.968;2022-09-27T00:02:05;98992.78;;;18.98;53.91
18784;BME280;9520;50.954;6.968;2022-09-27T00:02:28;98986.78;;;18.95;53.84
18784;BME280;9520;50.954;6.968;2022-09-27T00:02:50;98990.09;;;18.98;54.02
18784;BME280;9520;50.954;6.968;2022-09-27T00:03:13;98996.16;;;19.01;53.78
18784;BME280;9520;50.954;6.968;2022-09-27T00:03:37;98999.59;;;19.03;53.37
18784;BME280;9520;50.954;6.968;2022-09-27T00:04:01;98990.81;;;19.01;53.41
18784;BME280;9520;50.954;6.968;2022-09-27T00:04:23;98994.34;;;19.01;53.37
18784;BME280;9520;50.954;6.968;2022-09-27T00:04:46;98995.94;;;19.04;53.57
18784;BME280;9520;50.954;6.968;2022-09-27T00:05:08;98995.94;;;19.04;53.47
18784;BME280;9520;50.954;6.968;2022-09-27T00:05:31;99000.31;;;19.05;53.54
18784;BME280;9520;50.954;6.968;2022-09-27T00:06:02;98971.25;;;18.89;53.58
18784;BME280;9520;50.954;6.968;2022-09-27T00:06:28;99000.31;;;19.05;53.53
18784;BME280;9520;50.954;6.968;2022-09-27T00:06:50;99003.22;;;19.02;53.60
18784;BME280;9520;50.954;6.968;2022-09-27T00:07:11;98997.88;;;19.02;53.24
18784;BME280;9520;50.954;6.968;2022-09-27T00:07:34;98995.22;;;19.02;53.24
18784;BME280;9520;50.954;6.968;2022-09-27T00:07:56;98996.91;;;19.03;53.09
18784;BME280;9520;50.954;6.968;2022-09-27T00:08:19;99005.16;;;18.99;53.48
18784;BME280;9520;50.954;6.968;2022-09-27T00:08:41;99000.66;;;19.00;53.42
18784;BME280;9520;50.954;6.968;2022-09-27T00:09:04;99001.41;;;19.02;53.34
18784;BME280;9520;50.954;6.968;2022-09-27T00:09:25;99003.22;;;19.02;53.45
18784;BME280;9520;50.954;6.968;2022-09-27T00:09:47;99003.81;;;19.05;53.38
18784;BME280;9520;50.954;6.968;2022-09-27T00:10:11;98999.59;;;19.03;53.45
18784;BME280;9520;50.954;6.968;2022-09-27T00:10:34;98982.56;;;18.92;53.36
18784;BME280;9520;50.954;6.968;2022-09-27T00:10:58;99001.16;;;19.05;53.20
18784;BME280;9520;50.954;6.968;2022-09-27T00:11:25;99004.81;;;19.04;53.03
18784;BME280;9520;50.954;6.968;2022-09-27T00:11:47;98998.63;;;19.04;52.95
18784;BME280;9520;50.954;6.968;2022-09-27T00:12:10;99005.66;;;19.05;52.99
18784;BME280;9520;50.954;6.968;2022-09-27T00:12:32;98997.13;;;18.99;53.37
18784;BME280;9520;50.954;6.968;2022-09-27T00:12:57;99011.25;;;19.02;53.43
18784;BME280;9520;50.954;6.968;2022-09-27T00:13:18;99002.63;;;18.98;53.24
18784;BME280;9520;50.954;6.968;2022-09-27T00:13:41;99001.50;;;19.01;52.96
18784;BME280;9520;50.954;6.968;2022-09-27T00:14:04;99011.34;;;19.00;53.27
18784;BME280;9520;50.954;6.968;2022-09-27T00:14:26;99006.25;;;18.97;53.18
18784;BME280;9520;50.954;6.968;2022-09-27T00:14:48;99006.00;;;19.00;53.33
18784;BME280;9520;50.954;6.968;2022-09-27T00:15:11;99001.66;;;18.99;53.32
18784;BME280;9520;50.954;6.968;2022-09-27T00:15:33;99008.81;;;18.98;53.65
18784;BME280;9520;50.954;6.968;2022-09-27T00:15:56;99011.47;;;18.98;53.48
18784;BME280;9520;50.954;6.968;2022-09-27T00:16:18;99011.59;;;18.97;53.47
18784;BME280;9520;50.954;6.968;2022-09-27T00:16:41;99007.22;;;18.96;53.38
18784;BME280;9520;50.954;6.968;2022-09-27T00:17:04;99007.00;;;18.99;53.32
18784;BME280;9520;50.954;6.968;2022-09-27T00:17:25;99012.19;;;19.01;53.50
18784;BME280;9520;50.954;6.968;2022-09-27T00:17:47;99017.69;;;18.99;53.72
18784;BME280;9520;50.954;6.968;2022-09-27T00:18:13;99012.19;;;19.01;53.78
18784;BME280;9520;50.954;6.968;2022-09-27T00:18:34;99013.06;;;19.01;53.57
18784;BME280;9520;50.954;6.968;2022-09-27T00:18:57;99007.09;;;18.97;53.00
18784;BME280;9520;50.954;6.968;2022-09-27T00:19:21;99008.53;;;18.90;52.86
18784;BME280;9520;50.954;6.968;2022-09-27T00:19:44;99018.75;;;18.96;53.22
18784;BME280;9520;50.954;6.968;2022-09-27T00:20:07;99015.22;;;18.96;53.27
18784;BME280;9520;50.954;6.968;2022-09-27T00:20:29;99004.28;;;18.88;53.37
18784;BME280;9520;50.954;6.968;2022-09-27T00:20:51;99010.13;;;18.93;52.89
18784;BME280;9520;50.954;6.968;2022-09-27T00:21:13;99013.75;;;18.92;52.99
18784;BME280;9520;50.954;6.968;2022-09-27T00:21:36;99006.00;;;18.89;53.01
18784;BME280;9520;50.954;6.968;2022-09-27T00:21:58;99021.66;;;18.93;52.85
18784;BME280;9520;50.954;6.968;2022-09-27T00:22:21;99015.56;;;18.91;52.72
18784;BME280;9520;50.954;6.968;2022-09-27T00:22:44;99018.34;;;18.90;53.28
18784;BME280;9520;50.954;6.968;2022-09-27T00:23:07;99004.84;;;18.80;53.13
18784;BME280;9520;50.954;6.968;2022-09-27T00:23:28;99022.75;;;18.91;52.95
18784;BME280;9520;50.954;6.968;2022-09-27T00:23:50;99016.44;;;18.92;53.37
18784;BME280;9520;50.954;6.968;2022-09-27T00:24:13;99021.66;;;18.93;53.36
18784;BME280;9520;50.954;6.968;2022-09-27T00:24:36;99019.00;;;18.93;53.16
18784;BME280;9520;50.954;6.968;2022-09-27T00:24:58;99021.66;;;18.93;53.31
18784;BME280;9520;50.954;6.968;2022-09-27T00:25:21;99020.56;;;18.96;52.98
18784;BME280;9520;50.954;6.968;2022-09-27T00:25:53;99024.94;;;18.97;52.94
18784;BME280;9520;50.954;6.968;2022-09-27T00:26:15;99023.13;;;18.97;53.33
18784;BME280;9520;50.954;6.968;2022-09-27T00:26:47;99016.94;;;18.97;53.77
18784;BME280;9520;50.954;6.968;2022-09-27T00:27:09;99020.47;;;18.97;53.47
18784;BME280;9520;50.954;6.968;2022-09-27T00:27:30;99024.19;;;18.95;53.05
18784;BME280;9520;50.954;6.968;2022-09-27T00:27:52;99024.19;;;18.95;53.12
18784;BME280;9520;50.954;6.968;2022-09-27T00:28:15;99024.34;;;18.93;53.26
18784;BME280;9520;50.954;6.968;2022-09-27T00:28:36;99023.13;;;18.97;53.27
18784;BME280;9520;50.954;6.968;2022-09-27T00:28:58;99028.59;;;18.96;53.15
18784;BME280;9520;50.954;6.968;2022-09-27T00:29:20;99025.91;;;18.96;53.01
18784;BME280;9520;50.954;6.968;2022-09-27T00:29:43;99026.78;;;18.96;53.25
18784;BME280;9520;50.954;6.968;2022-09-27T00:30:05;99030.28;;;18.97;53.39
18784;BME280;9520;50.954;6.968;2022-09-27T00:30:27;99031.88;;;18.99;53.33
18784;BME280;9520;50.954;6.968;2022-09-27T00:31:32;99022.28;;;18.97;53.02
18784;BME280;9520;50.954;6.968;2022-09-27T00:31:55;99021.31;;;18.98;52.87
18784;BME280;9520;50.954;6.968;2022-09-27T00:32:18;99012.66;;;18.94;52.94
18784;BME280;9520;50.954;6.968;2022-09-27T00:32:39;99022.38;;;18.95;53.03
18784;BME280;9520;50.954;6.968;2022-09-27T00:33:01;99031.88;;;18.99;52.74
18784;BME280;9520;50.954;6.968;2022-09-27T00:33:24;99026.78;;;18.96;52.59
18784;BME280;9520;50.954;6.968;2022-09-27T00:33:46;99032.09;;;18.96;52.95
18784;BME280;9520;50.954;6.968;2022-09-27T00:34:15;99027.63;;;18.97;52.83
18784;BME280;9520;50.954;6.968;2022-09-27T00:34:39;99025.06;;;18.95;52.58
18784;BME280;9520;50.954;6.968;2022-09-27T00:35:02;99028.59;;;18.96;52.29
18784;BME280;9520;50.954;6.968;2022-09-27T00:35:24;99030.28;;;18.97;52.09
18784;BME280;9520;50.954;6.968;2022-09-27T00:35:46;98996.97;;;18.79;52.06
18784;BME280;9520;50.954;6.968;2022-09-27T00:36:08;99029.78;;;18.92;51.99
18784;BME280;9520;50.954;6.968;2022-09-27T00:36:32;99036.00;;;18.92;51.77
18784;BME280;9520;50.954;6.968;2022-09-27T00:36:54;99023.50;;;18.93;52.32
18784;BME280;9520;50.954;6.968;2022-09-27T00:37:16;99026.25;;;18.91;52.62
18784;BME280;9520;50.954;6.968;2022-09-27T00:37:38;99024.44;;;18.92;52.45
18784;BME280;9520;50.954;6.968;2022-09-27T00:38:00;99032.47;;;18.92;52.43
18784;BME280;9520;50.954;6.968;2022-09-27T00:38:25;99032.47;;;18.92;52.65
18784;BME280;9520;50.954;6.968;2022-09-27T00:38:47;99034.03;;;18.94;53.03
18784;BME280;9520;50.954;6.968;2022-09-27T00:39:09;99036.59;;;18.96;53.10
18784;BME280;9520;50.954;6.968;2022-09-27T00:39:32;99022.75;;;18.91;53.22
18784;BME280;9520;50.954;6.968;2022-09-27T00:39:54;99031.72;;;18.90;52.94
18784;BME280;9520;50.954;6.968;2022-09-27T00:40:16;99020.31;;;18.88;52.97
18784;BME280;9520;50.954;6.968;2022-09-27T00:40:41;99036.00;;;18.92;53.14
18784;BME280;9520;50.954;6.968;2022-09-27T00:41:03;99035.72;;;18.84;52.61
18784;BME280;9520;50.954;6.968;2022-09-27T00:41:28;99037.75;;;18.81;52.36
18784;BME280;9520;50.954;6.968;2022-09-27T00:41:51;99028.44;;;18.86;52.23
18784;BME280;9520;50.954;6.968;2022-09-27T00:42:14;99033.78;;;18.86;52.16
18784;BME280;9520;50.954;6.968;2022-09-27T00:42:36;99033.66;;;18.88;52.15
18784;BME280;9520;50.954;6.968;2022-09-27T00:42:58;99033.56;;;18.89;52.70
18784;BME280;9520;50.954;6.968;2022-09-27T00:43:22;99034.53;;;18.88;52.55
18784;BME280;9520;50.954;6.968;2022-09-27T00:43:47;99031.34;;;18.83;52.54
18784;BME280;9520;50.954;6.968;2022-09-27T00:45:20;99037.53;;;18.84;52.35
18784;BME280;9520;50.954;6.968;2022-09-27T00:45:47;99025.09;;;18.72;52.71
18784;BME280;9520;50.954;6.968;2022-09-27T00:46:11;99035.72;;;18.84;52.86
18784;BME280;9520;50.954;6.968;2022-09-27T00:46:36;99034.13;;;18.82;52.83
18784;BME280;9520;50.954;6.968;2022-09-27T00:47:03;99036.78;;;18.82;52.53
18784;BME280;9520;50.954;6.968;2022-09-27T00:47:29;99034.56;;;18.76;52.72
18784;BME280;9520;50.954;6.968;2022-09-27T00:47:55;99034.22;;;18.80;52.62
18784;BME280;9520;50.954;6.968;2022-09-27T00:48:22;99036.91;;;18.80;53.24
18784;BME280;9520;50.954;6.968;2022-09-27T00:48:49;99034.13;;;18.82;52.64
18784;BME280;9520;50.954;6.968;2022-09-27T00:49:23;99042.03;;;18.83;52.91
18784;BME280;9520;50.954;6.968;2022-09-27T00:49:49;99036.69;;;18.83;53.08
18784;BME280;9520;50.954;6.968;2022-09-27T00:50:21;99035.84;;;18.83;52.91
18784;BME280;9520;50.954;6.968;2022-09-27T00:50:48;99029.22;;;18.76;52.56
18784;BME280;9520;50.954;6.968;2022-09-27T00:51:11;99043.22;;;18.79;52.95
18784;BME280;9520;50.954;6.968;2022-09-27T00:51:35;99039.72;;;18.79;52.79
18784;BME280;9520;50.954;6.968;2022-09-27T00:52:02;99043.22;;;18.79;52.71
18784;BME280;9520;50.954;6.968;2022-09-27T00:52:30;99036.91;;;18.80;52.83
18784;BME280;9520;50.954;6.968;2022-09-27T00:53:08;99043.09;;;18.81;52.48
18784;BME280;9520;50.954;6.968;2022-09-27T00:53:34;99031.06;;;18.75;52.41
18784;BME280;9520;50.954;6.968;2022-09-27T00:53:59;99037.38;;;18.74;52.40
18784;BME280;9520;50.954;6.968;2022-09-27T00:54:23;99039.19;;;18.74;52.41
18784;BME280;9520;50.954;6.968;2022-09-27T00:54:48;99037.38;;;18.74;52.99
18784;BME280;9520;50.954;6.968;2022-09-27T00:55:15;99030.34;;;18.73;52.91
18784;BME280;9520;50.954;6.968;2022-09-27T00:55:42;99040.56;;;18.79;52.85
18784;BME280;9520;50.954;6.968;2022-09-27T00:56:08;99036.91;;;18.80;52.93
18784;BME280;9520;50.954;6.968;2022-09-27T00:56:31;99039.72;;;18.79;53.06
18784;BME280;9520;50.954;6.968;2022-09-27T00:56:56;99039.81;;;18.77;52.96
18784;BME280;9520;50.954;6.968;2022-09-27T00:57:20;99038.00;;;18.78;52.81
18784;BME280;9520;50.954;6.968;2022-09-27T00:57:43;99035.44;;;18.76;53.02
18784;BME280;9520;50.954;6.968;2022-09-27T00:58:06;99032.88;;;18.75;52.90
18784;BME280;9520;50.954;6.968;2022-09-27T00:58:32;99033.09;;;18.72;52.92
18784;BME280;9520;50.954;6.968;2022-09-27T00:58:58;99026.19;;;18.69;52.89
18784;BME280;9520;50.954;6.968;2022-09-27T00:59:25;99030.53;;;18.70;53.17
18784;BME280;9520;50.954;6.968;2022-09-27T00:59:49;99041.88;;;18.74;53.51
18784;BME280;9520;50.954;6.968;2022-09-27T01:00:14;99039.91;;;18.76;53.40
18784;BME280;9520;50.954;6.968;2022-09-27T01:00:37;99039.81;;;18.77;53.09
18784;BME280;9520;50.954;6.968;2022-09-27T01:01:06;99039.72;;;18.79;53.22
18784;BME280;9520;50.954;6.968;2022-09-27T01:01:31;99031.91;;;18.76;53.14
18784;BME280;9520;50.954;6.968;2022-09-27T01:01:55;99034.56;;;18.76;52.97
18784;BME280;9520;50.954;6.968;2022-09-27T01:02:17;99038.97;;;18.77;53.22
18784;BME280;9520;50.954;6.968;2022-09-27T01:02:42;99040.66;;;18.78;53.33
18784;BME280;9520;50.954;6.968;2022-09-27T01:03:11;99036.19;;;18.78;53.15
18784;BME280;9520;50.954;6.968;2022-09-27T01:03:42;99035.31;;;18.78;53.09
18784;BME280;9520;50.954;6.968;2022-09-27T01:04:07;99030.84;;;18.78;52.95
18784;BME280;9520;50.954;6.968;2022-09-27T01:04:29;99035.22;;;18.79;53.43
18784;BME280;9520;50.954;6.968;2022-09-27T01:04:53;99025.59;;;18.77;53.42
18784;BME280;9520;50.954;6.968;2022-09-27T01:05:18;99043.09;;;18.81;53.24
18784;BME280;9520;50.954;6.968;2022-09-27T01:05:41;99040.31;;;18.82;53.19
18784;BME280;9520;50.954;6.968;2022-09-27T01:06:05;99042.03;;;18.83;52.89
18784;BME280;9520;50.954;6.968;2022-09-27T01:06:29;99031.34;;;18.83;53.14
18784;BME280;9520;50.954;6.968;2022-09-27T01:06:51;99039.34;;;18.83;53.04
18784;BME280;9520;50.954;6.968;2022-09-27T01:07:13;99036.91;;;18.80;52.94
18784;BME280;9520;50.954;6.968;2022-09-27T01:07:35;99036.78;;;18.82;52.62
18784;BME280;9520;50.954;6.968;2022-09-27T01:07:58;99044.81;;;18.82;52.63
18784;BME280;9520;50.954;6.968;2022-09-27T01:08:21;99040.44;;;18.81;53.03
18784;BME280;9520;50.954;6.968;2022-09-27T01:08:44;99042.03;;;18.83;53.01
18784;BME280;9520;50.954;6.968;2022-09-27T01:09:09;99038.72;;;18.80;52.72
18784;BME280;9520;50.954;6.968;2022-09-27T01:09:31;99038.59;;;18.81;52.87
18784;BME280;9520;50.954;6.968;2022-09-27T01:09:55;99039.56;;;18.80;53.37
18784;BME280;9520;50.954;6.968;2022-09-27T01:10:17;99040.31;;;18.82;53.49
18784;BME280;9520;50.954;6.968;2022-09-27T01:10:48;99040.56;;;18.79;53.29
18784;BME280;9520;50.954;6.968;2022-09-27T01:11:31;99041.06;;;18.84;53.22
18784;BME280;9520;50.954;6.968;2022-09-27T01:12:01;99042.88;;;18.84;53.52
18784;BME280;9520;50.954;6.968;2022-09-27T01:12:38;99049.09;;;18.84;53.68
18784;BME280;9520;50.954;6.968;2022-09-27T01:13:06;99041.91;;;18.85;53.25
18784;BME280;9520;50.954;6.968;2022-09-27T01:13:37;99049.91;;;18.85;53.32
18784;BME280;9520;50.954;6.968;2022-09-27T01:14:11;99037.13;;;18.77;53.17
18784;BME280;9520;50.954;6.968;2022-09-27T01:14:50;99049.41;;;18.80;53.68
18784;BME280;9520;50.954;6.968;2022-09-27T01:15:22;99054.88;;;18.78;53.20
18784;BME280;9520;50.954;6.968;2022-09-27T01:15:51;99035.16;;;18.68;53.13
18784;BME280;9520;50.954;6.968;2022-09-27T01:16:26;99051.09;;;18.81;53.03
18784;BME280;9520;50.954;6.968;2022-09-27T01:16:56;99057.31;;;18.81;53.21
18784;BME280;9520;50.954;6.968;2022-09-27T01:17:30;99048.44;;;18.81;53.16
18784;BME280;9520;50.954;6.968;2022-09-27T01:18:05;99055.50;;;18.82;52.81
18784;BME280;9520;50.954;6.968;2022-09-27T01:18:31;99057.19;;;18.83;53.01
18784;BME280;9520;50.954;6.968;2022-09-27T01:19:04;99053.56;;;18.84;52.72
18784;BME280;9520;50.954;6.968;2022-09-27T01:19:46;99053.78;;;18.81;52.75
18784;BME280;9520;50.954;6.968;2022-09-27T01:20:27;99050.75;;;18.74;53.35
18784;BME280;9520;50.954;6.968;2022-09-27T01:21:59;99054.75;;;18.80;53.15
18784;BME280;9520;50.954;6.968;2022-09-27T01:22:27;99041.63;;;18.77;52.88
18784;BME280;9520;50.954;6.968;2022-09-27T01:23:03;99051.97;;;18.81;52.99
18784;BME280;9520;50.954;6.968;2022-09-27T01:23:56;99048.34;;;18.82;52.87
18784;BME280;9520;50.954;6.968;2022-09-27T01:24:36;99055.72;;;18.79;52.32
18784;BME280;9520;50.954;6.968;2022-09-27T01:25:16;99052.41;;;18.75;53.22
18784;BME280;9520;50.954;6.968;2022-09-27T01:25:59;99049.97;;;18.72;52.73
18784;BME280;9520;50.954;6.968;2022-09-27T01:26:43;99056.28;;;18.71;53.22
18784;BME280;9520;50.954;6.968;2022-09-27T01:28:15;99056.53;;;18.68;52.58
18784;BME280;9520;50.954;6.968;2022-09-27T01:28:46;99052.16;;;18.67;52.34
18784;BME280;9520;50.954;6.968;2022-09-27T01:29:18;99056.53;;;18.68;52.28
18784;BME280;9520;50.954;6.968;2022-09-27T01:29:57;99060.06;;;18.69;52.47
18784;BME280;9520;50.954;6.968;2022-09-27T01:30:26;99056.63;;;18.67;52.65
18784;BME280;9520;50.954;6.968;2022-09-27T01:30:52;99056.00;;;18.63;52.47
18784;BME280;9520;50.954;6.968;2022-09-27T01:31:22;99051.41;;;18.65;52.32
18784;BME280;9520;50.954;6.968;2022-09-27T01:31:48;99048.97;;;18.62;52.87
18784;BME280;9520;50.954;6.968;2022-09-27T01:32:19;99047.91;;;18.65;53.61
18784;BME280;9520;50.954;6.968;2022-09-27T01:32:50;99055.25;;;18.61;53.45
18784;BME280;9520;50.954;6.968;2022-09-27T01:33:31;99056.97;;;18.62;53.04
18784;BME280;9520;50.954;6.968;2022-09-27T01:34:01;99051.63;;;18.62;53.48
18784;BME280;9520;50.954;6.968;2022-09-27T01:34:26;99057.09;;;18.61;53.55
18784;BME280;9520;50.954;6.968;2022-09-27T01:35:02;99046.41;;;18.61;52.98
18784;BME280;9520;50.954;6.968;2022-09-27T01:35:33;99042.34;;;18.55;52.97
18784;BME280;9520;50.954;6.968;2022-09-27T01:36:52;99052.72;;;18.60;52.74
18784;BME280;9520;50.954;6.968;2022-09-27T01:37:25;99057.22;;;18.59;52.54
18784;BME280;9520;50.954;6.968;2022-09-27T01:37:57;99063.28;;;18.61;52.87
18784;BME280;9520;50.954;6.968;2022-09-27T01:38:25;99053.56;;;18.60;52.68
18784;BME280;9520;50.954;6.968;2022-09-27T01:39:05;99057.72;;;18.64;52.45
18784;BME280;9520;50.954;6.968;2022-09-27T01:39:54;99055.16;;;18.63;52.65
18784;BME280;9520;50.954;6.968;2022-09-27T01:40:30;99053.56;;;18.60;52.76
18784;BME280;9520;50.954;6.968;2022-09-27T01:41:26;99065.09;;;18.61;52.56
18784;BME280;9520;50.954;6.968;2022-09-27T01:42:13;99058.69;;;18.63;53.01
18784;BME280;9520;50.954;6.968;2022-09-27T01:42:48;99058.69;;;18.63;53.43
18784;BME280;9520;50.954;6.968;2022-09-27T01:43:21;99059.41;;;18.65;53.37
18784;BME280;9520;50.954;6.968;2022-09-27T01:43:45;99057.72;;;18.64;53.32
18784;BME280;9520;50.954;6.968;2022-09-27T01:44:20;99058.44;;;18.66;53.39
18784;BME280;9520;50.954;6.968;2022-09-27T01:44:50;99052.16;;;18.67;52.91
18784;BME280;9520;50.954;6.968;2022-09-27T01:45:24;99055.78;;;18.66;53.40
18784;BME280;9520;50.954;6.968;2022-09-27T01:46:01;99053.00;;;18.68;53.25
18784;BME280;9520;50.954;6.968;2022-09-27T01:46:49;99064.66;;;18.67;53.38
18784;BME280;9520;50.954;6.968;2022-09-27T01:47:41;99053.84;;;18.68;52.93
18784;BME280;9520;50.954;6.968;2022-09-27T01:48:31;99052.09;;;18.56;52.55
18784;BME280;9520;50.954;6.968;2022-09-27T01:49:07;99055.41;;;18.60;53.11
18784;BME280;9520;50.954;6.968;2022-09-27T01:49:32;99051.63;;;18.62;53.20
18784;BME280;9520;50.954;6.968;2022-09-27T01:50:00;99059.66;;;18.62;53.51
18784;BME280;9520;50.954;6.968;2022-09-27T01:50:30;99054.06;;;18.65;53.38
18784;BME280;9520;50.954;6.968;2022-09-27T01:50:58;99050.69;;;18.63;53.07
18784;BME280;9520;50.954;6.968;2022-09-27T01:51:29;99045.78;;;18.57;52.95
18784;BME280;9520;50.954;6.968;2022-09-27T01:51:54;99045.34;;;18.63;53.43
18784;BME280;9520;50.954;6.968;2022-09-27T01:52:24;99062.94;;;18.66;53.15
18784;BME280;9520;50.954;6.968;2022-09-27T01:52:52;99056.97;;;18.62;52.73
18784;BME280;9520;50.954;6.968;2022-09-27T01:53:20;99057.72;;;18.64;53.30
18784;BME280;9520;50.954;6.968;2022-09-27T01:54:36;99055.25;;;18.61;52.84
18784;BME280;9520;50.954;6.968;2022-09-27T01:55:23;99058.16;;;18.58;53.00
18784;BME280;9520;50.954;6.968;2022-09-27T01:56:30;99059.13;;;18.57;52.71
18784;BME280;9520;50.954;6.968;2022-09-27T01:57:10;99054.34;;;18.49;52.78
18784;BME280;9520;50.954;6.968;2022-09-27T01:57:36;99058.28;;;18.57;52.99
18784;BME280;9520;50.954;6.968;2022-09-27T01:58:05;99057.31;;;18.58;52.92
18784;BME280;9520;50.954;6.968;2022-09-27T01:58:36;99057.13;;;18.48;53.55
18784;BME280;9520;50.954;6.968;2022-09-27T01:59:06;99064.72;;;18.54;53.64
18784;BME280;9520;50.954;6.968;2022-09-27T01:59:36;99058.81;;;18.49;53.45
18784;BME280;9520;50.954;6.968;2022-09-27T02:00:10;99056.88;;;18.51;53.41
18784;BME280;9520;50.954;6.968;2022-09-27T02:00:37;99055.84;;;18.53;53.46
18784;BME280;9520;50.954;6.968;2022-09-27T02:01:03;99066.59;;;18.52;53.02
18784;BME280;9520;50.954;6.968;2022-09-27T02:01:28;99055.78;;;18.30;53.17
18784;BME280;9520;50.954;6.968;2022-09-27T02:01:52;99055.22;;;18.37;52.98
18784;BME280;9520;50.954;6.968;2022-09-27T02:02:25;99059.72;;;18.37;52.91
18784;BME280;9520;50.954;6.968;2022-09-27T02:03:11;99068.03;;;18.45;52.80
18784;BME280;9520;50.954;6.968;2022-09-27T02:03:35;99071.41;;;18.47;52.93
18784;BME280;9520;50.954;6.968;2022-09-27T02:04:31;99062.13;;;18.52;53.08
18784;BME280;9520;50.954;6.968;2022-09-27T02:05:06;99052.63;;;18.48;52.78
18784;BME280;9520;50.954;6.968;2022-09-27T02:05:36;99067.16;;;18.57;53.06
18784;BME280;9520;50.954;6.968;2022-09-27T02:06:19;99060.09;;;18.56;52.90
18784;BME280;9520;50.954;6.968;2022-09-27T02:07:02;99067.16;;;18.57;53.17
18784;BME280;9520;50.954;6.968;2022-09-27T02:07:31;99067.91;;;18.59;53.41
18784;BME280;9520;50.954;6.968;2022-09-27T02:07:59;99065.31;;;18.58;53.46
18784;BME280;9520;50.954;6.968;2022-09-27T02:08:28;99060.00;;;18.58;53.23
18784;BME280;9520;50.954;6.968;2022-09-27T02:09:01;99061.25;;;18.52;52.70
18784;BME280;9520;50.954;6.968;2022-09-27T02:09:47;99057.56;;;18.42;52.81
18784;BME280;9520;50.954;6.968;2022-09-27T02:10:15;99064.03;;;18.50;53.10
18784;BME280;9520;50.954;6.968;2022-09-27T02:10:51;99060.41;;;18.51;53.39
18784;BME280;9520;50.954;6.968;2022-09-27T02:11:15;99059.69;;;18.49;53.46
18784;BME280;9520;50.954;6.968;2022-09-27T02:11:47;99069.81;;;18.57;52.80
18784;BME280;9520;50.954;6.968;2022-09-27T02:12:20;99068.31;;;18.53;52.65
18784;BME280;9520;50.954;6.968;2022-09-27T02:12:50;99064.78;;;18.52;52.95
18784;BME280;9520;50.954;6.968;2022-09-27T02:13:17;99066.53;;;18.53;52.86
18784;BME280;9520;50.954;6.968;2022-09-27T02:13:54;99066.53;;;18.53;53.46
18784;BME280;9520;50.954;6.968;2022-09-27T02:14:38;99066.59;;;18.52;52.96
18784;BME280;9520;50.954;6.968;2022-09-27T02:15:04;99065.13;;;18.48;53.19
18784;BME280;9520;50.954;6.968;2022-09-27T02:15:37;99065.47;;;18.43;53.49
18784;BME280;9520;50.954;6.968;2022-09-27T02:16:21;99063.66;;;18.44;53.50
18784;BME280;9520;50.954;6.968;2022-09-27T02:16:49;99068.97;;;18.44;53.22
18784;BME280;9520;50.954;6.968;2022-09-27T02:17:22;99065.56;;;18.42;53.82
18784;BME280;9520;50.954;6.968;2022-09-27T02:17:55;99064.69;;;18.41;53.76
18784;BME280;9520;50.954;6.968;2022-09-27T02:18:24;99071.66;;;18.44;53.22
18784;BME280;9520;50.954;6.968;2022-09-27T02:18:58;99064.69;;;18.41;53.32
18784;BME280;9520;50.954;6.968;2022-09-27T02:19:31;99074.94;;;18.47;53.75
18784;BME280;9520;50.954;6.968;2022-09-27T02:20:00;99068.66;;;18.48;53.35
18784;BME280;9520;50.954;6.968;2022-09-27T02:20:37;99065.75;;;18.51;53.40
18784;BME280;9520;50.954;6.968;2022-09-27T02:21:03;99064.78;;;18.52;53.69
18784;BME280;9520;50.954;6.968;2022-09-27T02:21:34;99078.91;;;18.54;53.44
18784;BME280;9520;50.954;6.968;2022-09-27T02:22:02;99072.91;;;18.51;52.76
18784;BME280;9520;50.954;6.968;2022-09-27T02:22:34;99079.00;;;18.53;53.06
18784;BME280;9520;50.954;6.968;2022-09-27T02:23:04;99073.75;;;18.51;53.23
18784;BME280;9520;50.954;6.968;2022-09-27T02:23:35;99081.91;;;18.50;53.39
18784;BME280;9520;50.954;6.968;2022-09-27T02:24:05;99073.03;;;18.49;53.47
18784;BME280;9520;50.954;6.968;2022-09-27T02:24:34;99073.03;;;18.49;53.70
18784;BME280;9520;50.954;6.968;2022-09-27T02:25:01;99080.38;;;18.46;53.48
18784;BME280;9520;50.954;6.968;2022-09-27T02:25:29;99077.19;;;18.41;53.37
18784;BME280;9520;50.954;6.968;2022-09-27T02:25:56;99077.44;;;18.38;52.85
18784;BME280;9520;50.954;6.968;2022-09-27T02:26:22;99076.47;;;18.39;53.16
18784;BME280;9520;50.954;6.968;2022-09-27T02:26:48;99082.03;;;18.36;53.41
18784;BME280;9520;50.954;6.968;2022-09-27T02:27:14;99061.25;;;18.28;52.92
18784;BME280;9520;50.954;6.968;2022-09-27T02:27:43;99075.72;;;18.37;52.96
18784;BME280;9520;50.954;6.968;2022-09-27T02:28:22;99075.53;;;18.40;52.72
18784;BME280;9520;50.954;6.968;2022-09-27T02:28:50;99075.53;;;18.40;52.55
18784;BME280;9520;50.954;6.968;2022-09-27T02:29:26;99075.53;;;18.40;52.57
18784;BME280;9520;50.954;6.968;2022-09-27T02:29:56;99072.94;;;18.38;52.65
18784;BME280;9520;50.954;6.968;2022-09-27T02:30:20;99073.69;;;18.40;52.73
18784;BME280;9520;50.954;6.968;2022-09-27T02:30:50;99073.56;;;18.42;52.88
18784;BME280;9520;50.954;6.968;2022-09-27T02:31:23;99061.66;;;18.35;52.47
18784;BME280;9520;50.954;6.968;2022-09-27T02:31:47;99075.38;;;18.41;52.73
18784;BME280;9520;50.954;6.968;2022-09-27T02:32:10;99077.00;;;18.44;53.05
18784;BME280;9520;50.954;6.968;2022-09-27T02:32:32;99071.00;;;18.40;53.24
18784;BME280;9520;50.954;6.968;2022-09-27T02:32:54;99078.81;;;18.43;53.03
18784;BME280;9520;50.954;6.968;2022-09-27T02:33:19;99078.81;;;18.43;52.72
18784;BME280;9520;50.954;6.968;2022-09-27T02:33:47;99080.22;;;18.36;52.87
18784;BME280;9520;50.954;6.968;2022-09-27T02:34:13;99080.34;;;18.35;52.96
18784;BME280;9520;50.954;6.968;2022-09-27T02:34:37;99072.44;;;18.21;52.79
18784;BME280;9520;50.954;6.968;2022-09-27T02:35:06;99081.22;;;18.23;52.54
18784;BME280;9520;50.954;6.968;2022-09-27T02:35:31;99076.81;;;18.22;52.84